sensor_id;sensor_type;location;lat;lon;timestamp;P1;durP1;ratioP1;P2;durP2;ratioP2
12776;SDS011;6452;41.572;23.732;2024-01-30T00:00:50;1.60;;;1.50;;
12776;SDS011;6452;41.572;23.732;2024-01-30T00:03:18;1.52;;;1.50;;
12776;SDS011;6452;41.572;23.732;2024-01-30T00:05:44;1.55;;;1.48;;
12776;SDS011;6452;41.572;23.732;2024-01-30T00:08:11;1.60;;;1.50;;
12776;SDS011;6452;41.572;23.732;2024-01-30T00:10:38;1.60;;;1.50;;
12776;SDS011;6452;41.572;23.732;2024-01-30T00:13:05;2.00;;;1.90;;
12776;SDS011;6452;41.572;23.732;2024-01-30T00:15:31;1.85;;;1.75;;
12776;SDS011;6452;41.572;23.732;2024-01-30T00:17:58;1.92;;;1.77;;
12776;SDS011;6452;41.572;23.732;2024-01-30T00:20:25;2.00;;;1.90;;
12776;SDS011;6452;41.572;23.732;2024-01-30T00:22:52;1.90;;;1.77;;
12776;SDS011;6452;41.572;23.732;2024-01-30T00:25:18;2.08;;;1.98;;
12776;SDS011;6452;41.572;23.732;2024-01-30T00:27:45;1.80;;;1.70;;
12776;SDS011;6452;41.572;23.732;2024-01-30T00:30:12;2.05;;;1.95;;
12776;SDS011;6452;41.572;23.732;2024-01-30T00:32:41;2.85;;;2.53;;
12776;SDS011;6452;41.572;23.732;2024-01-30T00:35:08;2.13;;;2.03;;
12776;SDS011;6452;41.572;23.732;2024-01-30T00:37:36;2.38;;;2.25;;
12776;SDS011;6452;41.572;23.732;2024-01-30T00:40:02;10.80;;;4.60;;
12776;SDS011;6452;41.572;23.732;2024-01-30T00:42:31;4.20;;;2.70;;
12776;SDS011;6452;41.572;23.732;2024-01-30T00:44:58;5.43;;;3.40;;
12776;SDS011;6452;41.572;23.732;2024-01-30T00:47:25;3.25;;;2.90;;
12776;SDS011;6452;41.572;23.732;2024-01-30T00:49:52;2.60;;;2.40;;
12776;SDS011;6452;41.572;23.732;2024-01-30T00:52:18;2.22;;;2.05;;
12776;SDS011;6452;41.572;23.732;2024-01-30T00:54:45;2.00;;;1.90;;
12776;SDS011;6452;41.572;23.732;2024-01-30T00:57:11;4.63;;;2.30;;
12776;SDS011;6452;41.572;23.732;2024-01-30T00:59:38;2.75;;;2.55;;
12776;SDS011;6452;41.572;23.732;2024-01-30T01:02:05;3.17;;;2.90;;
12776;SDS011;6452;41.572;23.732;2024-01-30T01:04:32;3.30;;;3.00;;
12776;SDS011;6452;41.572;23.732;2024-01-30T01:06:58;3.53;;;2.47;;
12776;SDS011;6452;41.572;23.732;2024-01-30T01:09:26;2.65;;;2.45;;
12776;SDS011;6452;41.572;23.732;2024-01-30T01:11:52;2.88;;;2.67;;
12776;SDS011;6452;41.572;23.732;2024-01-30T01:14:19;2.47;;;2.35;;
12776;SDS011;6452;41.572;23.732;2024-01-30T01:16:46;4.00;;;2.22;;
12776;SDS011;6452;41.572;23.732;2024-01-30T01:19:12;2.92;;;2.70;;
12776;SDS011;6452;41.572;23.732;2024-01-30T01:21:39;2.38;;;2.28;;
12776;SDS011;6452;41.572;23.732;2024-01-30T01:24:06;2.53;;;2.33;;
12776;SDS011;6452;41.572;23.732;2024-01-30T01:26:32;2.58;;;2.22;;
12776;SDS011;6452;41.572;23.732;2024-01-30T01:28:59;2.75;;;2.55;;
12776;SDS011;6452;41.572;23.732;2024-01-30T01:31:26;2.25;;;2.15;;
12776;SDS011;6452;41.572;23.732;2024-01-30T01:33:55;3.00;;;2.80;;
12776;SDS011;6452;41.572;23.732;2024-01-30T01:36:22;2.53;;;2.33;;
12776;SDS011;6452;41.572;23.732;2024-01-30T01:38:49;2.10;;;2.00;;
12776;SDS011;6452;41.572;23.732;2024-01-30T01:41:16;2.20;;;2.10;;
12776;SDS011;6452;41.572;23.732;2024-01-30T01:43:42;2.50;;;2.30;;
12776;SDS011;6452;41.572;23.732;2024-01-30T01:46:09;2.22;;;2.03;;
12776;SDS011;6452;41.572;23.732;2024-01-30T01:48:36;2.20;;;2.10;;
12776;SDS011;6452;41.572;23.732;2024-01-30T01:51:05;2.30;;;2.20;;
12776;SDS011;6452;41.572;23.732;2024-01-30T01:53:32;2.75;;;2.20;;
12776;SDS011;6452;41.572;23.732;2024-01-30T01:55:59;2.08;;;1.95;;
12776;SDS011;6452;41.572;23.732;2024-01-30T01:58:25;2.08;;;1.98;;
12776;SDS011;6452;41.572;23.732;2024-01-30T02:00:56;1.88;;;1.77;;
12776;SDS011;6452;41.572;23.732;2024-01-30T02:03:22;2.45;;;2.25;;
12776;SDS011;6452;41.572;23.732;2024-01-30T02:05:50;2.72;;;2.53;;
12776;SDS011;6452;41.572;23.732;2024-01-30T02:08:17;2.38;;;2.20;;
12776;SDS011;6452;41.572;23.732;2024-01-30T02:10:44;2.75;;;2.47;;
12776;SDS011;6452;41.572;23.732;2024-01-30T02:13:10;6.45;;;3.03;;
12776;SDS011;6452;41.572;23.732;2024-01-30T02:15:36;5.38;;;3.67;;
12776;SDS011;6452;41.572;23.732;2024-01-30T02:18:03;5.97;;;3.03;;
12776;SDS011;6452;41.572;23.732;2024-01-30T02:20:30;2.90;;;2.63;;
12776;SDS011;6452;41.572;23.732;2024-01-30T02:22:59;3.03;;;2.72;;
12776;SDS011;6452;41.572;23.732;2024-01-30T02:25:30;5.93;;;3.75;;
12776;SDS011;6452;41.572;23.732;2024-01-30T02:27:57;6.82;;;3.88;;
12776;SDS011;6452;41.572;23.732;2024-01-30T02:30:24;6.55;;;4.13;;
12776;SDS011;6452;41.572;23.732;2024-01-30T02:32:51;6.38;;;3.83;;
12776;SDS011;6452;41.572;23.732;2024-01-30T02:35:17;5.05;;;3.50;;
12776;SDS011;6452;41.572;23.732;2024-01-30T02:37:43;4.72;;;2.88;;
12776;SDS011;6452;41.572;23.732;2024-01-30T02:40:10;2.90;;;2.70;;
12776;SDS011;6452;41.572;23.732;2024-01-30T02:42:37;3.60;;;2.70;;
12776;SDS011;6452;41.572;23.732;2024-01-30T02:45:03;3.70;;;2.90;;
12776;SDS011;6452;41.572;23.732;2024-01-30T02:47:32;4.03;;;3.20;;
12776;SDS011;6452;41.572;23.732;2024-01-30T02:49:58;4.70;;;3.30;;
12776;SDS011;6452;41.572;23.732;2024-01-30T02:52:25;5.00;;;3.15;;
12776;SDS011;6452;41.572;23.732;2024-01-30T02:54:52;4.88;;;3.30;;
12776;SDS011;6452;41.572;23.732;2024-01-30T02:57:18;3.67;;;3.10;;
12776;SDS011;6452;41.572;23.732;2024-01-30T02:59:45;3.00;;;2.80;;
12776;SDS011;6452;41.572;23.732;2024-01-30T03:02:11;2.17;;;1.98;;
12776;SDS011;6452;41.572;23.732;2024-01-30T03:04:40;2.22;;;2.10;;
12776;SDS011;6452;41.572;23.732;2024-01-30T03:07:08;2.30;;;2.20;;
12776;SDS011;6452;41.572;23.732;2024-01-30T03:09:34;2.00;;;1.90;;
12776;SDS011;6452;41.572;23.732;2024-01-30T03:12:02;2.35;;;2.15;;
12776;SDS011;6452;41.572;23.732;2024-01-30T03:14:30;4.00;;;2.50;;
12776;SDS011;6452;41.572;23.732;2024-01-30T03:16:57;3.38;;;3.08;;
12776;SDS011;6452;41.572;23.732;2024-01-30T03:19:24;3.38;;;2.97;;
12776;SDS011;6452;41.572;23.732;2024-01-30T03:21:50;5.60;;;3.53;;
12776;SDS011;6452;41.572;23.732;2024-01-30T03:24:17;4.72;;;3.53;;
12776;SDS011;6452;41.572;23.732;2024-01-30T03:26:44;3.13;;;2.85;;
12776;SDS011;6452;41.572;23.732;2024-01-30T03:29:10;3.08;;;2.55;;
12776;SDS011;6452;41.572;23.732;2024-01-30T03:31:38;3.33;;;2.75;;
12776;SDS011;6452;41.572;23.732;2024-01-30T03:34:05;3.58;;;2.70;;
12776;SDS011;6452;41.572;23.732;2024-01-30T03:36:31;3.35;;;2.72;;
12776;SDS011;6452;41.572;23.732;2024-01-30T03:39:00;3.60;;;2.28;;
12776;SDS011;6452;41.572;23.732;2024-01-30T03:41:27;2.92;;;2.72;;
12776;SDS011;6452;41.572;23.732;2024-01-30T03:43:54;3.75;;;3.03;;
12776;SDS011;6452;41.572;23.732;2024-01-30T03:46:20;3.15;;;2.85;;
12776;SDS011;6452;41.572;23.732;2024-01-30T03:48:47;3.00;;;2.80;;
12776;SDS011;6452;41.572;23.732;2024-01-30T03:51:13;3.75;;;3.28;;
12776;SDS011;6452;41.572;23.732;2024-01-30T03:53:41;4.78;;;3.70;;
12776;SDS011;6452;41.572;23.732;2024-01-30T03:56:08;4.18;;;3.28;;
12776;SDS011;6452;41.572;23.732;2024-01-30T03:58:35;3.58;;;3.28;;
12776;SDS011;6452;41.572;23.732;2024-01-30T04:01:01;6.28;;;3.60;;
12776;SDS011;6452;41.572;23.732;2024-01-30T04:03:27;3.72;;;3.20;;
12776;SDS011;6452;41.572;23.732;2024-01-30T04:05:54;3.83;;;3.30;;
12776;SDS011;6452;41.572;23.732;2024-01-30T04:08:21;3.35;;;3.03;;
12776;SDS011;6452;41.572;23.732;2024-01-30T04:10:47;5.07;;;3.67;;
12776;SDS011;6452;41.572;23.732;2024-01-30T04:13:14;5.78;;;4.05;;
12776;SDS011;6452;41.572;23.732;2024-01-30T04:15:40;4.50;;;3.65;;
12776;SDS011;6452;41.572;23.732;2024-01-30T04:18:07;5.20;;;3.92;;
12776;SDS011;6452;41.572;23.732;2024-01-30T04:20:33;4.03;;;3.63;;
12776;SDS011;6452;41.572;23.732;2024-01-30T04:23:00;4.43;;;3.80;;
12776;SDS011;6452;41.572;23.732;2024-01-30T04:25:27;6.97;;;4.43;;
12776;SDS011;6452;41.572;23.732;2024-01-30T04:27:54;7.22;;;4.57;;
12776;SDS011;6452;41.572;23.732;2024-01-30T04:30:20;5.32;;;4.47;;
12776;SDS011;6452;41.572;23.732;2024-01-30T04:32:47;10.85;;;4.35;;
12776;SDS011;6452;41.572;23.732;2024-01-30T04:35:14;4.80;;;3.50;;
12776;SDS011;6452;41.572;23.732;2024-01-30T04:37:41;4.85;;;3.30;;
12776;SDS011;6452;41.572;23.732;2024-01-30T04:40:08;3.90;;;3.50;;
12776;SDS011;6452;41.572;23.732;2024-01-30T04:42:35;4.32;;;3.58;;
12776;SDS011;6452;41.572;23.732;2024-01-30T04:45:02;4.80;;;3.75;;
12776;SDS011;6452;41.572;23.732;2024-01-30T04:47:29;9.15;;;4.32;;
12776;SDS011;6452;41.572;23.732;2024-01-30T04:49:56;5.55;;;4.25;;
12776;SDS011;6452;41.572;23.732;2024-01-30T04:52:23;6.85;;;4.75;;
12776;SDS011;6452;41.572;23.732;2024-01-30T04:54:49;5.78;;;4.57;;
12776;SDS011;6452;41.572;23.732;2024-01-30T04:57:16;8.63;;;5.57;;
12776;SDS011;6452;41.572;23.732;2024-01-30T04:59:43;6.13;;;4.93;;
12776;SDS011;6452;41.572;23.732;2024-01-30T05:02:09;5.88;;;4.70;;
12776;SDS011;6452;41.572;23.732;2024-01-30T05:04:35;5.68;;;4.60;;
12776;SDS011;6452;41.572;23.732;2024-01-30T05:07:02;5.90;;;4.55;;
12776;SDS011;6452;41.572;23.732;2024-01-30T05:09:30;7.60;;;5.53;;
12776;SDS011;6452;41.572;23.732;2024-01-30T05:11:56;12.63;;;7.72;;
12776;SDS011;6452;41.572;23.732;2024-01-30T05:14:23;4.50;;;4.05;;
12776;SDS011;6452;41.572;23.732;2024-01-30T05:16:50;4.35;;;3.60;;
12776;SDS011;6452;41.572;23.732;2024-01-30T05:19:18;7.07;;;4.97;;
12776;SDS011;6452;41.572;23.732;2024-01-30T05:21:47;5.30;;;4.63;;
12776;SDS011;6452;41.572;23.732;2024-01-30T05:24:13;7.05;;;4.63;;
12776;SDS011;6452;41.572;23.732;2024-01-30T05:26:39;6.10;;;5.50;;
12776;SDS011;6452;41.572;23.732;2024-01-30T05:29:07;8.70;;;6.00;;
12776;SDS011;6452;41.572;23.732;2024-01-30T05:31:34;10.77;;;6.65;;
12776;SDS011;6452;41.572;23.732;2024-01-30T05:34:01;9.27;;;6.07;;
12776;SDS011;6452;41.572;23.732;2024-01-30T05:36:27;8.85;;;6.63;;
12776;SDS011;6452;41.572;23.732;2024-01-30T05:38:54;7.85;;;5.32;;
12776;SDS011;6452;41.572;23.732;2024-01-30T05:41:20;11.52;;;7.07;;
12776;SDS011;6452;41.572;23.732;2024-01-30T05:43:47;8.05;;;6.03;;
12776;SDS011;6452;41.572;23.732;2024-01-30T05:46:13;7.57;;;6.25;;
12776;SDS011;6452;41.572;23.732;2024-01-30T05:48:40;6.30;;;4.90;;
12776;SDS011;6452;41.572;23.732;2024-01-30T05:51:09;9.18;;;5.68;;
12776;SDS011;6452;41.572;23.732;2024-01-30T05:53:35;8.68;;;5.80;;
12776;SDS011;6452;41.572;23.732;2024-01-30T05:56:02;8.02;;;5.85;;
12776;SDS011;6452;41.572;23.732;2024-01-30T05:58:29;8.60;;;5.95;;
12776;SDS011;6452;41.572;23.732;2024-01-30T06:00:59;7.00;;;5.60;;
12776;SDS011;6452;41.572;23.732;2024-01-30T06:03:26;7.03;;;5.80;;
12776;SDS011;6452;41.572;23.732;2024-01-30T06:05:52;8.40;;;4.72;;
12776;SDS011;6452;41.572;23.732;2024-01-30T06:08:19;7.43;;;5.20;;
12776;SDS011;6452;41.572;23.732;2024-01-30T06:10:46;7.60;;;5.05;;
12776;SDS011;6452;41.572;23.732;2024-01-30T06:13:13;13.57;;;8.23;;
12776;SDS011;6452;41.572;23.732;2024-01-30T06:15:40;14.75;;;8.10;;
12776;SDS011;6452;41.572;23.732;2024-01-30T06:18:06;9.07;;;6.10;;
12776;SDS011;6452;41.572;23.732;2024-01-30T06:20:32;6.72;;;4.82;;
12776;SDS011;6452;41.572;23.732;2024-01-30T06:22:59;7.93;;;5.70;;
12776;SDS011;6452;41.572;23.732;2024-01-30T06:25:25;6.80;;;5.72;;
12776;SDS011;6452;41.572;23.732;2024-01-30T06:27:52;7.22;;;5.18;;
12776;SDS011;6452;41.572;23.732;2024-01-30T06:30:18;7.35;;;6.00;;
12776;SDS011;6452;41.572;23.732;2024-01-30T06:32:45;4.68;;;4.28;;
12776;SDS011;6452;41.572;23.732;2024-01-30T06:35:11;6.47;;;5.70;;
12776;SDS011;6452;41.572;23.732;2024-01-30T06:37:38;9.23;;;6.28;;
12776;SDS011;6452;41.572;23.732;2024-01-30T06:40:05;7.28;;;6.03;;
12776;SDS011;6452;41.572;23.732;2024-01-30T06:42:34;4.63;;;4.22;;
12776;SDS011;6452;41.572;23.732;2024-01-30T06:45:00;6.53;;;5.30;;
12776;SDS011;6452;41.572;23.732;2024-01-30T06:47:26;4.35;;;3.85;;
12776;SDS011;6452;41.572;23.732;2024-01-30T06:49:54;5.85;;;4.85;;
12776;SDS011;6452;41.572;23.732;2024-01-30T06:52:21;4.85;;;4.35;;
12776;SDS011;6452;41.572;23.732;2024-01-30T06:54:47;4.25;;;3.85;;
12776;SDS011;6452;41.572;23.732;2024-01-30T06:57:14;4.07;;;3.67;;
12776;SDS011;6452;41.572;23.732;2024-01-30T06:59:40;4.53;;;4.22;;
12776;SDS011;6452;41.572;23.732;2024-01-30T07:02:11;5.65;;;4.40;;
12776;SDS011;6452;41.572;23.732;2024-01-30T07:04:55;7.57;;;3.90;;
12776;SDS011;6452;41.572;23.732;2024-01-30T07:07:22;10.10;;;5.43;;
12776;SDS011;6452;41.572;23.732;2024-01-30T07:09:49;5.60;;;4.13;;
12776;SDS011;6452;41.572;23.732;2024-01-30T07:12:18;7.45;;;5.32;;
12776;SDS011;6452;41.572;23.732;2024-01-30T07:14:44;8.80;;;5.47;;
12776;SDS011;6452;41.572;23.732;2024-01-30T07:17:11;4.47;;;4.05;;
12776;SDS011;6452;41.572;23.732;2024-01-30T07:19:37;5.13;;;4.32;;
12776;SDS011;6452;41.572;23.732;2024-01-30T07:22:04;6.57;;;4.10;;
12776;SDS011;6452;41.572;23.732;2024-01-30T07:24:31;4.13;;;3.72;;
12776;SDS011;6452;41.572;23.732;2024-01-30T07:26:58;4.88;;;3.55;;
12776;SDS011;6452;41.572;23.732;2024-01-30T07:29:24;4.10;;;3.63;;
12776;SDS011;6452;41.572;23.732;2024-01-30T07:31:51;2.88;;;2.67;;
12776;SDS011;6452;41.572;23.732;2024-01-30T07:34:19;3.70;;;2.50;;
12776;SDS011;6452;41.572;23.732;2024-01-30T07:36:45;2.50;;;2.30;;
12776;SDS011;6452;41.572;23.732;2024-01-30T07:39:12;2.72;;;2.53;;
12776;SDS011;6452;41.572;23.732;2024-01-30T07:41:39;3.15;;;2.80;;
12776;SDS011;6452;41.572;23.732;2024-01-30T07:44:06;3.42;;;3.13;;
12776;SDS011;6452;41.572;23.732;2024-01-30T07:46:33;5.97;;;3.90;;
12776;SDS011;6452;41.572;23.732;2024-01-30T07:49:00;4.70;;;3.88;;
12776;SDS011;6452;41.572;23.732;2024-01-30T07:51:27;2.65;;;2.42;;
12776;SDS011;6452;41.572;23.732;2024-01-30T07:53:54;2.72;;;2.53;;
12776;SDS011;6452;41.572;23.732;2024-01-30T07:56:24;2.92;;;2.72;;
12776;SDS011;6452;41.572;23.732;2024-01-30T07:58:51;2.70;;;2.50;;
12776;SDS011;6452;41.572;23.732;2024-01-30T08:01:18;2.90;;;2.70;;
12776;SDS011;6452;41.572;23.732;2024-01-30T08:03:44;2.65;;;2.45;;
12776;SDS011;6452;41.572;23.732;2024-01-30T08:06:11;3.65;;;3.13;;
12776;SDS011;6452;41.572;23.732;2024-01-30T08:08:38;2.75;;;2.65;;
12776;SDS011;6452;41.572;23.732;2024-01-30T08:11:04;2.20;;;2.10;;
12776;SDS011;6452;41.572;23.732;2024-01-30T08:13:31;2.55;;;2.30;;
12776;SDS011;6452;41.572;23.732;2024-01-30T08:15:58;3.08;;;2.88;;
12776;SDS011;6452;41.572;23.732;2024-01-30T08:18:24;3.47;;;2.40;;
12776;SDS011;6452;41.572;23.732;2024-01-30T08:20:51;2.58;;;2.35;;
12776;SDS011;6452;41.572;23.732;2024-01-30T08:23:18;3.72;;;3.15;;
12776;SDS011;6452;41.572;23.732;2024-01-30T08:25:45;2.50;;;2.30;;
12776;SDS011;6452;41.572;23.732;2024-01-30T08:28:12;2.38;;;2.28;;
12776;SDS011;6452;41.572;23.732;2024-01-30T08:30:38;2.25;;;2.15;;
12776;SDS011;6452;41.572;23.732;2024-01-30T08:33:05;2.40;;;2.25;;
12776;SDS011;6452;41.572;23.732;2024-01-30T08:35:32;2.75;;;2.55;;
12776;SDS011;6452;41.572;23.732;2024-01-30T08:37:59;1.90;;;1.80;;
12776;SDS011;6452;41.572;23.732;2024-01-30T08:40:26;1.92;;;1.83;;
12776;SDS011;6452;41.572;23.732;2024-01-30T08:42:54;1.75;;;1.65;;
12776;SDS011;6452;41.572;23.732;2024-01-30T08:45:21;2.05;;;1.90;;
12776;SDS011;6452;41.572;23.732;2024-01-30T08:47:47;2.15;;;2.03;;
12776;SDS011;6452;41.572;23.732;2024-01-30T08:50:14;2.00;;;1.90;;
12776;SDS011;6452;41.572;23.732;2024-01-30T08:52:41;2.00;;;1.90;;
12776;SDS011;6452;41.572;23.732;2024-01-30T08:55:08;2.47;;;2.28;;
12776;SDS011;6452;41.572;23.732;2024-01-30T08:57:35;5.47;;;2.40;;
12776;SDS011;6452;41.572;23.732;2024-01-30T09:00:02;2.53;;;1.70;;
12776;SDS011;6452;41.572;23.732;2024-01-30T09:02:32;2.22;;;2.13;;
12776;SDS011;6452;41.572;23.732;2024-01-30T09:04:59;2.22;;;2.13;;
12776;SDS011;6452;41.572;23.732;2024-01-30T09:07:25;2.90;;;1.77;;
12776;SDS011;6452;41.572;23.732;2024-01-30T09:09:51;2.53;;;1.45;;
12776;SDS011;6452;41.572;23.732;2024-01-30T09:12:18;2.00;;;1.90;;
12776;SDS011;6452;41.572;23.732;2024-01-30T09:14:45;1.65;;;1.65;;
12776;SDS011;6452;41.572;23.732;2024-01-30T09:17:12;3.03;;;2.15;;
12776;SDS011;6452;41.572;23.732;2024-01-30T09:19:38;2.90;;;2.70;;
12776;SDS011;6452;41.572;23.732;2024-01-30T09:22:06;1.92;;;1.83;;
12776;SDS011;6452;41.572;23.732;2024-01-30T09:24:32;2.13;;;2.03;;
12776;SDS011;6452;41.572;23.732;2024-01-30T09:26:59;8.18;;;5.18;;
12776;SDS011;6452;41.572;23.732;2024-01-30T09:29:25;6.03;;;5.07;;
12776;SDS011;6452;41.572;23.732;2024-01-30T09:31:52;3.38;;;3.17;;
12776;SDS011;6452;41.572;23.732;2024-01-30T09:34:18;2.70;;;2.60;;
12776;SDS011;6452;41.572;23.732;2024-01-30T09:36:44;3.70;;;2.38;;
12776;SDS011;6452;41.572;23.732;2024-01-30T09:39:11;1.80;;;1.80;;
12776;SDS011;6452;41.572;23.732;2024-01-30T09:41:44;2.30;;;2.20;;
12776;SDS011;6452;41.572;23.732;2024-01-30T09:44:15;1.50;;;1.50;;
12776;SDS011;6452;41.572;23.732;2024-01-30T09:46:42;1.95;;;1.83;;
12776;SDS011;6452;41.572;23.732;2024-01-30T09:49:11;1.80;;;1.73;;
12776;SDS011;6452;41.572;23.732;2024-01-30T09:51:39;2.30;;;2.20;;
12776;SDS011;6452;41.572;23.732;2024-01-30T09:54:07;1.85;;;1.75;;
12776;SDS011;6452;41.572;23.732;2024-01-30T09:56:35;2.72;;;1.70;;
12776;SDS011;6452;41.572;23.732;2024-01-30T09:59:02;2.00;;;1.90;;
12776;SDS011;6452;41.572;23.732;2024-01-30T10:01:29;1.50;;;1.50;;
12776;SDS011;6452;41.572;23.732;2024-01-30T10:03:57;1.83;;;1.73;;
12776;SDS011;6452;41.572;23.732;2024-01-30T10:06:24;2.00;;;1.77;;
12776;SDS011;6452;41.572;23.732;2024-01-30T10:08:50;1.90;;;1.80;;
12776;SDS011;6452;41.572;23.732;2024-01-30T10:11:16;1.60;;;1.60;;
12776;SDS011;6452;41.572;23.732;2024-01-30T10:13:43;1.80;;;1.70;;
12776;SDS011;6452;41.572;23.732;2024-01-30T10:16:10;1.70;;;1.60;;
12776;SDS011;6452;41.572;23.732;2024-01-30T10:18:42;1.52;;;1.52;;
12776;SDS011;6452;41.572;23.732;2024-01-30T10:21:08;1.63;;;1.63;;
12776;SDS011;6452;41.572;23.732;2024-01-30T10:23:35;1.60;;;1.60;;
12776;SDS011;6452;41.572;23.732;2024-01-30T10:26:03;1.52;;;1.50;;
12776;SDS011;6452;41.572;23.732;2024-01-30T10:28:30;1.75;;;1.70;;
12776;SDS011;6452;41.572;23.732;2024-01-30T10:30:58;2.40;;;2.20;;
12776;SDS011;6452;41.572;23.732;2024-01-30T10:33:31;2.47;;;2.38;;
12776;SDS011;6452;41.572;23.732;2024-01-30T10:36:02;1.90;;;1.77;;
12776;SDS011;6452;41.572;23.732;2024-01-30T10:38:32;2.10;;;2.00;;
12776;SDS011;6452;41.572;23.732;2024-01-30T10:40:59;1.98;;;1.88;;
12776;SDS011;6452;41.572;23.732;2024-01-30T10:43:36;1.50;;;1.50;;
12776;SDS011;6452;41.572;23.732;2024-01-30T10:46:22;1.75;;;1.65;;
12776;SDS011;6452;41.572;23.732;2024-01-30T10:48:58;1.70;;;1.60;;
12776;SDS011;6452;41.572;23.732;2024-01-30T10:51:26;1.30;;;1.30;;
12776;SDS011;6452;41.572;23.732;2024-01-30T10:53:53;1.70;;;1.60;;
12776;SDS011;6452;41.572;23.732;2024-01-30T10:56:22;1.60;;;1.50;;
12776;SDS011;6452;41.572;23.732;2024-01-30T10:58:49;1.50;;;1.40;;
12776;SDS011;6452;41.572;23.732;2024-01-30T11:01:21;1.60;;;1.60;;
12776;SDS011;6452;41.572;23.732;2024-01-30T11:03:52;1.70;;;1.60;;
12776;SDS011;6452;41.572;23.732;2024-01-30T11:06:22;1.50;;;1.50;;
12776;SDS011;6452;41.572;23.732;2024-01-30T11:09:10;1.70;;;1.52;;
12776;SDS011;6452;41.572;23.732;2024-01-30T11:11:48;1.95;;;1.52;;
12776;SDS011;6452;41.572;23.732;2024-01-30T11:14:34;1.60;;;1.52;;
12776;SDS011;6452;41.572;23.732;2024-01-30T11:17:05;2.38;;;1.60;;
12776;SDS011;6452;41.572;23.732;2024-01-30T11:19:33;1.98;;;1.83;;
12776;SDS011;6452;41.572;23.732;2024-01-30T11:21:59;2.15;;;2.00;;
12776;SDS011;6452;41.572;23.732;2024-01-30T11:24:27;1.40;;;1.40;;
12776;SDS011;6452;41.572;23.732;2024-01-30T11:26:57;1.60;;;1.50;;
12776;SDS011;6452;41.572;23.732;2024-01-30T11:29:27;2.00;;;1.38;;
12776;SDS011;6452;41.572;23.732;2024-01-30T11:32:16;1.25;;;1.25;;
12776;SDS011;6452;41.572;23.732;2024-01-30T11:34:49;2.15;;;1.60;;
12776;SDS011;6452;41.572;23.732;2024-01-30T11:37:16;1.70;;;1.60;;
12776;SDS011;6452;41.572;23.732;2024-01-30T11:39:47;1.20;;;1.20;;
12776;SDS011;6452;41.572;23.732;2024-01-30T11:42:14;1.33;;;1.33;;
12776;SDS011;6452;41.572;23.732;2024-01-30T11:44:40;2.88;;;2.40;;
12776;SDS011;6452;41.572;23.732;2024-01-30T11:47:12;1.50;;;1.40;;
12776;SDS011;6452;41.572;23.732;2024-01-30T11:49:38;1.40;;;1.27;;
12776;SDS011;6452;41.572;23.732;2024-01-30T11:52:05;1.23;;;1.23;;
12776;SDS011;6452;41.572;23.732;2024-01-30T11:54:32;1.58;;;1.58;;
12776;SDS011;6452;41.572;23.732;2024-01-30T11:56:59;1.58;;;1.50;;
12776;SDS011;6452;41.572;23.732;2024-01-30T11:59:25;1.27;;;1.23;;
12776;SDS011;6452;41.572;23.732;2024-01-30T12:01:52;1.52;;;1.40;;
12776;SDS011;6452;41.572;23.732;2024-01-30T12:04:18;3.55;;;2.67;;
12776;SDS011;6452;41.572;23.732;2024-01-30T12:06:45;3.10;;;1.55;;
12776;SDS011;6452;41.572;23.732;2024-01-30T12:09:17;1.45;;;1.45;;
12776;SDS011;6452;41.572;23.732;2024-01-30T12:11:44;2.05;;;1.50;;
12776;SDS011;6452;41.572;23.732;2024-01-30T12:14:16;1.70;;;1.60;;
12776;SDS011;6452;41.572;23.732;2024-01-30T12:16:42;2.65;;;1.00;;
12776;SDS011;6452;41.572;23.732;2024-01-30T12:19:08;1.63;;;1.63;;
12776;SDS011;6452;41.572;23.732;2024-01-30T12:21:35;1.20;;;1.20;;
12776;SDS011;6452;41.572;23.732;2024-01-30T12:24:03;1.63;;;1.50;;
12776;SDS011;6452;41.572;23.732;2024-01-30T12:26:32;1.58;;;1.55;;
12776;SDS011;6452;41.572;23.732;2024-01-30T12:28:59;2.40;;;1.90;;
12776;SDS011;6452;41.572;23.732;2024-01-30T12:31:27;3.63;;;3.30;;
12776;SDS011;6452;41.572;23.732;2024-01-30T12:33:54;6.85;;;6.28;;
12776;SDS011;6452;41.572;23.732;2024-01-30T12:36:21;2.95;;;2.83;;
12776;SDS011;6452;41.572;23.732;2024-01-30T12:38:48;1.35;;;1.35;;
12776;SDS011;6452;41.572;23.732;2024-01-30T12:41:15;1.92;;;1.83;;
12776;SDS011;6452;41.572;23.732;2024-01-30T12:43:42;1.77;;;1.67;;
12776;SDS011;6452;41.572;23.732;2024-01-30T12:46:08;1.33;;;1.33;;
12776;SDS011;6452;41.572;23.732;2024-01-30T12:48:35;2.60;;;2.08;;
12776;SDS011;6452;41.572;23.732;2024-01-30T12:51:02;2.20;;;2.00;;
12776;SDS011;6452;41.572;23.732;2024-01-30T12:53:28;2.83;;;2.70;;
12776;SDS011;6452;41.572;23.732;2024-01-30T12:55:55;2.70;;;2.55;;
12776;SDS011;6452;41.572;23.732;2024-01-30T12:58:22;2.65;;;2.47;;
12776;SDS011;6452;41.572;23.732;2024-01-30T13:00:49;2.50;;;2.40;;
12776;SDS011;6452;41.572;23.732;2024-01-30T13:03:16;1.85;;;1.75;;
12776;SDS011;6452;41.572;23.732;2024-01-30T13:05:42;2.65;;;2.45;;
12776;SDS011;6452;41.572;23.732;2024-01-30T13:08:08;2.55;;;2.45;;
12776;SDS011;6452;41.572;23.732;2024-01-30T13:10:35;2.00;;;1.90;;
12776;SDS011;6452;41.572;23.732;2024-01-30T13:13:02;2.45;;;1.80;;
12776;SDS011;6452;41.572;23.732;2024-01-30T13:15:29;4.03;;;2.30;;
12776;SDS011;6452;41.572;23.732;2024-01-30T13:17:55;11.52;;;10.73;;
12776;SDS011;6452;41.572;23.732;2024-01-30T13:20:21;1.88;;;1.85;;
12776;SDS011;6452;41.572;23.732;2024-01-30T13:22:48;2.25;;;2.15;;
12776;SDS011;6452;41.572;23.732;2024-01-30T13:25:15;2.00;;;1.90;;
12776;SDS011;6452;41.572;23.732;2024-01-30T13:27:42;3.17;;;2.92;;
12776;SDS011;6452;41.572;23.732;2024-01-30T13:30:08;2.78;;;2.58;;
12776;SDS011;6452;41.572;23.732;2024-01-30T13:32:36;1.83;;;1.80;;
12776;SDS011;6452;41.572;23.732;2024-01-30T13:35:03;3.42;;;3.22;;
12776;SDS011;6452;41.572;23.732;2024-01-30T13:37:30;3.53;;;3.33;;
12776;SDS011;6452;41.572;23.732;2024-01-30T13:39:56;5.38;;;4.38;;
12776;SDS011;6452;41.572;23.732;2024-01-30T13:42:23;6.93;;;4.72;;
12776;SDS011;6452;41.572;23.732;2024-01-30T13:44:50;5.40;;;4.43;;
12776;SDS011;6452;41.572;23.732;2024-01-30T13:47:16;14.82;;;12.13;;
12776;SDS011;6452;41.572;23.732;2024-01-30T13:49:44;1.35;;;1.30;;
12776;SDS011;6452;41.572;23.732;2024-01-30T13:52:10;1.85;;;1.80;;
12776;SDS011;6452;41.572;23.732;2024-01-30T13:54:36;3.70;;;3.40;;
12776;SDS011;6452;41.572;23.732;2024-01-30T13:57:03;4.93;;;3.80;;
12776;SDS011;6452;41.572;23.732;2024-01-30T13:59:29;2.65;;;2.45;;
12776;SDS011;6452;41.572;23.732;2024-01-30T14:01:56;1.33;;;1.33;;
12776;SDS011;6452;41.572;23.732;2024-01-30T14:04:22;1.33;;;1.33;;
12776;SDS011;6452;41.572;23.732;2024-01-30T14:06:48;1.38;;;1.33;;
12776;SDS011;6452;41.572;23.732;2024-01-30T14:09:15;1.95;;;1.85;;
12776;SDS011;6452;41.572;23.732;2024-01-30T14:11:41;1.67;;;1.67;;
12776;SDS011;6452;41.572;23.732;2024-01-30T14:14:08;1.95;;;1.85;;
12776;SDS011;6452;41.572;23.732;2024-01-30T14:16:33;2.20;;;2.00;;
12776;SDS011;6452;41.572;23.732;2024-01-30T14:19:00;10.30;;;8.27;;
12776;SDS011;6452;41.572;23.732;2024-01-30T14:21:27;3.28;;;2.97;;
12776;SDS011;6452;41.572;23.732;2024-01-30T14:23:52;8.65;;;3.50;;
12776;SDS011;6452;41.572;23.732;2024-01-30T14:26:19;2.55;;;2.42;;
12776;SDS011;6452;41.572;23.732;2024-01-30T14:28:46;3.00;;;2.80;;
12776;SDS011;6452;41.572;23.732;2024-01-30T14:31:12;2.45;;;2.30;;
12776;SDS011;6452;41.572;23.732;2024-01-30T14:33:39;3.30;;;3.20;;
12776;SDS011;6452;41.572;23.732;2024-01-30T14:36:05;2.33;;;2.33;;
12776;SDS011;6452;41.572;23.732;2024-01-30T14:38:33;2.38;;;2.20;;
12776;SDS011;6452;41.572;23.732;2024-01-30T14:40:59;4.72;;;4.32;;
12776;SDS011;6452;41.572;23.732;2024-01-30T14:43:26;6.60;;;6.10;;
12776;SDS011;6452;41.572;23.732;2024-01-30T14:45:52;5.38;;;4.97;;
12776;SDS011;6452;41.572;23.732;2024-01-30T14:48:18;4.78;;;4.38;;